createdAt,value
2023-01-20T00:00:27.265Z,14.23
2023-01-20T00:04:28.989Z,13.50
2023-01-20T00:08:30.678Z,13.35
2023-01-20T00:12:32.415Z,14.07
2023-01-20T00:16:34.177Z,13.45
2023-01-20T00:20:36.115Z,13.35
2023-01-20T00:24:37.817Z,13.13
2023-01-20T00:28:39.872Z,12.50
2023-01-20T00:32:45.289Z,13.23
2023-01-20T00:36:47.089Z,12.88
2023-01-20T00:40:54.935Z,12.98
2023-01-20T00:44:56.656Z,13.20
2023-01-20T00:48:58.504Z,14.43
2023-01-20T00:53:00.267Z,13.07
2023-01-20T00:57:01.993Z,12.88
2023-01-20T01:01:04.013Z,13.77
2023-01-20T01:05:06.280Z,15.07
2023-01-20T01:09:08.061Z,15.63
2023-01-20T01:13:10.067Z,14.63
2023-01-20T01:17:11.725Z,15.68
2023-01-20T01:21:16.166Z,15.48
2023-01-20T01:25:18.204Z,15.88
2023-01-20T01:29:20.224Z,15.68
2023-01-20T01:33:22.277Z,15.25
2023-01-20T01:37:24.066Z,15.43
2023-01-20T01:41:25.928Z,16.00
2023-01-20T01:45:30.056Z,16.52
2023-01-20T01:49:32.982Z,15.82
2023-01-20T01:53:41.668Z,17.90
2023-01-20T01:57:43.801Z,17.33
2023-01-20T02:01:50.286Z,18.27
2023-01-20T02:05:54.169Z,18.58
2023-01-20T02:09:56.921Z,18.12
2023-01-20T02:13:59.685Z,18.42
2023-01-20T02:18:07.221Z,18.20
2023-01-20T02:22:26.191Z,18.85
2023-01-20T02:26:46.281Z,18.27
2023-01-20T02:31:15.411Z,18.77
2023-01-20T02:35:25.693Z,19.85
2023-01-20T02:39:46.239Z,18.48
2023-01-20T02:44:07.066Z,19.15
2023-01-20T02:48:24.200Z,19.45
2023-01-20T02:52:30.140Z,17.70
2023-01-20T02:56:33.008Z,18.67
2023-01-20T03:00:48.288Z,18.67
2023-01-20T03:05:01.292Z,19.20
2023-01-20T03:09:07.268Z,18.77
2023-01-20T03:13:35.403Z,19.37
2023-01-20T03:17:37.468Z,17.90
2023-01-20T03:21:39.234Z,17.73
2023-01-20T03:25:41.488Z,17.60
2023-01-20T03:29:43.278Z,15.65
2023-01-20T03:33:48.617Z,17.00
2023-01-20T03:37:50.415Z,16.33
2023-01-20T03:42:10.440Z,15.90
2023-01-20T03:46:24.005Z,16.20
2023-01-20T03:50:32.115Z,15.73
2023-01-20T03:54:55.979Z,15.15
2023-01-20T03:59:01.337Z,14.85
2023-01-20T04:03:07.430Z,15.52
2023-01-20T04:07:14.089Z,16.20
2023-01-20T04:11:15.975Z,16.25
2023-01-20T04:15:20.128Z,16.90
2023-01-20T04:19:22.514Z,16.35
2023-01-20T04:23:39.922Z,17.33
2023-01-20T04:27:41.690Z,17.27
2023-01-20T04:31:43.422Z,17.30
2023-01-20T04:35:45.223Z,16.75
2023-01-20T04:39:46.958Z,16.55
2023-01-20T04:43:48.726Z,16.70
2023-01-20T04:47:50.700Z,15.85
2023-01-20T04:51:52.717Z,15.82
2023-01-20T04:55:54.426Z,16.17
2023-01-20T04:59:56.165Z,17.45
2023-01-20T05:03:57.889Z,16.50
2023-01-20T05:07:59.807Z,16.95
2023-01-20T05:12:01.569Z,16.60
2023-01-20T05:16:03.512Z,17.23
2023-01-20T05:20:05.602Z,17.27
2023-01-20T05:24:07.388Z,17.40
2023-01-20T05:28:09.182Z,16.70
2023-01-20T05:32:11.138Z,16.65
2023-01-20T05:36:12.928Z,16.25
2023-01-20T05:40:14.715Z,15.20
2023-01-20T05:44:16.591Z,15.45
2023-01-20T05:48:18.347Z,15.88
2023-01-20T05:52:20.151Z,16.45
2023-01-20T05:56:21.938Z,16.95
2023-01-20T06:00:23.892Z,14.10
2023-01-20T06:04:25.657Z,15.82
2023-01-20T06:08:27.399Z,15.95
2023-01-20T06:12:29.139Z,14.82
2023-01-20T06:16:30.868Z,15.90
2023-01-20T06:20:32.916Z,15.20
2023-01-20T06:24:34.611Z,16.62
2023-01-20T06:28:36.386Z,15.65
2023-01-20T06:32:38.053Z,16.08
2023-01-20T06:36:40.269Z,15.73
2023-01-20T06:40:41.924Z,13.80
2023-01-20T06:44:43.601Z,15.02
2023-01-20T06:48:46.414Z,14.85
2023-01-20T06:52:48.419Z,14.40
2023-01-20T06:56:50.032Z,14.27
2023-01-20T07:00:53.029Z,15.20
2023-01-20T07:04:54.792Z,14.73
2023-01-20T07:08:58.877Z,15.50
2023-01-20T07:13:00.705Z,14.15
2023-01-20T07:17:02.532Z,15.35
2023-01-20T07:21:04.884Z,14.10
2023-01-20T07:25:06.803Z,14.45
2023-01-20T07:29:08.534Z,14.60
2023-01-20T07:33:10.199Z,15.20
2023-01-20T07:37:11.838Z,14.43
2023-01-20T07:41:16.349Z,14.48
2023-01-20T07:45:18.190Z,14.60
2023-01-20T07:49:19.980Z,14.60
2023-01-20T07:53:21.669Z,13.82
2023-01-20T07:57:23.320Z,15.55
2023-01-20T08:01:28.317Z,16.08
2023-01-20T08:05:32.473Z,15.50
2023-01-20T08:09:34.097Z,14.27
2023-01-20T08:13:35.837Z,15.07
2023-01-20T08:17:37.500Z,16.05
2023-01-20T08:21:39.188Z,17.60
2023-01-20T08:25:40.845Z,16.75
2023-01-20T08:29:42.656Z,16.42
2023-01-20T08:33:45.391Z,17.67
2023-01-20T08:37:47.070Z,16.73
2023-01-20T08:41:49.980Z,18.60
2023-01-20T08:46:02.035Z,17.87
2023-01-20T08:50:06.137Z,17.42
2023-01-20T08:54:07.873Z,17.40
2023-01-20T08:58:09.555Z,16.55
2023-01-20T09:02:11.297Z,16.30
2023-01-20T09:06:13.599Z,17.17
2023-01-20T09:10:15.303Z,16.62
2023-01-20T09:14:21.507Z,15.98
2023-01-20T09:18:23.196Z,16.57
2023-01-20T09:22:24.840Z,16.40
2023-01-20T09:26:35.985Z,16.92
2023-01-20T09:30:37.860Z,16.70
2023-01-20T09:34:39.557Z,15.82
2023-01-20T09:38:59.716Z,15.85
2023-01-20T09:43:54.460Z,14.82
2023-01-20T09:48:51.066Z,15.65
2023-01-20T09:53:25.587Z,13.57
2023-01-20T09:57:31.654Z,13.45
2023-01-20T10:01:42.010Z,14.33
2023-01-20T10:05:45.180Z,14.68
2023-01-20T10:09:54.194Z,15.00
2023-01-20T10:14:12.769Z,15.30
2023-01-20T10:18:40.697Z,14.80
2023-01-20T10:22:48.055Z,16.62
2023-01-20T10:26:59.093Z,16.02
2023-01-20T10:31:04.175Z,17.12
2023-01-20T10:35:22.909Z,17.30
2023-01-20T10:39:34.797Z,14.07
2023-01-20T10:43:36.563Z,12.73
2023-01-20T10:48:05.605Z,11.57
2023-01-20T10:52:15.901Z,11.02
2023-01-20T10:56:17.488Z,11.68
2023-01-20T11:00:25.539Z,10.75
2023-01-20T11:04:28.095Z,9.25
2023-01-20T11:08:30.411Z,8.20
2023-01-20T11:12:39.736Z,8.45
2023-01-20T11:16:46.487Z,8.15
2023-01-20T11:20:52.466Z,8.68
2023-01-20T11:24:55.859Z,8.80
2023-01-20T11:29:28.450Z,8.60
2023-01-20T11:33:30.186Z,8.05
2023-01-20T11:37:39.194Z,8.07
2023-01-20T11:41:40.853Z,7.22
2023-01-20T11:45:42.629Z,8.23
2023-01-20T11:49:44.479Z,7.60
2023-01-20T11:53:46.877Z,8.48
2023-01-20T11:58:01.110Z,7.57
2023-01-20T12:02:08.953Z,8.02
2023-01-20T12:06:23.030Z,8.55
2023-01-20T12:10:30.120Z,8.00
2023-01-20T12:19:01.554Z,7.57
2023-01-20T12:23:07.063Z,7.93
2023-01-20T12:27:20.471Z,7.18
2023-01-20T12:31:23.947Z,7.62
2023-01-20T12:35:30.665Z,7.35
2023-01-20T12:39:52.393Z,7.55
2023-01-20T12:44:19.399Z,7.32
2023-01-20T12:48:33.486Z,6.70
2023-01-20T12:53:14.338Z,7.55
2023-01-20T12:57:28.650Z,7.57
2023-01-20T13:01:33.356Z,7.50
2023-01-20T13:06:03.125Z,7.03
2023-01-20T13:10:17.211Z,8.00
2023-01-20T13:14:41.186Z,7.72
2023-01-20T13:19:15.212Z,7.78
2023-01-20T13:23:33.225Z,7.25
2023-01-20T13:27:37.269Z,7.40
2023-01-20T13:31:45.431Z,6.82
2023-01-20T13:35:50.010Z,7.25
2023-01-20T13:39:54.209Z,7.00
2023-01-20T13:43:55.925Z,7.72
2023-01-20T13:48:02.510Z,7.68
2023-01-20T13:52:04.257Z,8.20
2023-01-20T13:56:27.600Z,7.28
2023-01-20T14:00:29.263Z,7.28
2023-01-20T14:04:32.817Z,7.18
2023-01-20T14:08:40.287Z,7.22
2023-01-20T14:12:42.144Z,7.85
2023-01-20T14:16:44.262Z,6.70
2023-01-20T14:21:00.574Z,7.62
2023-01-20T14:25:04.275Z,7.07
2023-01-20T14:29:05.877Z,7.05
2023-01-20T14:33:10.776Z,7.22
2023-01-20T14:37:21.295Z,7.15
2023-01-20T14:41:25.122Z,7.53
2023-01-20T14:45:29.594Z,7.68
2023-01-20T14:49:34.354Z,7.07
2023-01-20T14:53:36.210Z,8.07
2023-01-20T14:57:45.136Z,8.85
2023-01-20T15:02:02.374Z,7.57
2023-01-20T15:06:10.111Z,8.15
2023-01-20T15:10:15.157Z,7.70
2023-01-20T15:14:17.043Z,8.15
2023-01-20T15:18:21.442Z,7.50
2023-01-20T15:22:26.442Z,7.65
2023-01-20T15:26:30.080Z,7.53
2023-01-20T15:30:31.769Z,7.45
2023-01-20T15:34:33.388Z,7.70
2023-01-20T15:38:34.995Z,7.32
2023-01-20T15:42:36.646Z,7.78
2023-01-20T15:46:40.078Z,8.30
2023-01-20T15:50:44.896Z,8.13
2023-01-20T15:54:46.554Z,8.50
2023-01-20T15:58:48.719Z,8.60
2023-01-20T16:02:50.913Z,8.35
2023-01-20T16:06:52.788Z,7.85
2023-01-20T16:10:54.481Z,7.20
2023-01-20T16:14:57.020Z,8.10
2023-01-20T16:18:59.139Z,8.60
2023-01-20T16:23:00.786Z,8.35
2023-01-20T16:27:04.641Z,8.10
2023-01-20T16:31:06.360Z,8.80
2023-01-20T16:35:08.391Z,9.73
2023-01-20T16:39:11.046Z,8.32
2023-01-20T16:43:12.860Z,9.32
2023-01-20T16:47:14.494Z,8.80
2023-01-20T16:51:18.619Z,9.40
2023-01-20T16:55:20.451Z,8.98
2023-01-20T16:59:22.078Z,9.90
2023-01-20T17:03:27.332Z,10.57
2023-01-20T17:07:29.031Z,10.50
2023-01-20T17:11:35.837Z,9.70
2023-01-20T17:15:40.336Z,9.90
2023-01-20T17:19:42.089Z,10.45
2023-01-20T17:23:43.769Z,10.65
2023-01-20T17:27:45.913Z,10.70
2023-01-20T17:31:47.605Z,10.15
2023-01-20T17:35:56.503Z,11.05
2023-01-20T17:39:59.644Z,11.18
2023-01-20T17:44:01.680Z,12.50
2023-01-20T17:48:04.662Z,11.38
2023-01-20T17:52:06.425Z,12.30
2023-01-20T17:56:12.788Z,11.82
2023-01-20T18:00:15.690Z,12.55
2023-01-20T18:04:18.233Z,13.43
2023-01-20T18:08:19.925Z,20.55
2023-01-20T18:12:21.633Z,15.23
2023-01-20T18:16:27.220Z,13.52
2023-01-20T18:20:28.934Z,14.15
2023-01-20T18:24:30.603Z,14.87
2023-01-20T18:28:33.204Z,13.27
2023-01-20T18:32:34.930Z,15.55
2023-01-20T18:36:40.076Z,12.20
2023-01-20T18:40:41.674Z,13.07
2023-01-20T18:44:43.810Z,12.32
2023-01-20T18:48:47.182Z,13.32
2023-01-20T18:52:48.868Z,11.85
2023-01-20T18:56:50.529Z,18.40
2023-01-20T19:00:52.203Z,12.65
2023-01-20T19:04:53.859Z,11.57
2023-01-20T19:08:57.311Z,13.43
2023-01-20T19:12:59.005Z,11.10
2023-01-20T19:17:00.671Z,14.38
2023-01-20T19:21:07.699Z,14.18
2023-01-20T19:25:09.926Z,12.77
2023-01-20T19:29:15.523Z,12.60
2023-01-20T19:33:17.460Z,13.00
2023-01-20T19:37:19.139Z,13.18
2023-01-20T19:41:25.715Z,14.32
2023-01-20T19:45:40.378Z,15.25
2023-01-20T19:49:46.707Z,14.32
2023-01-20T19:53:50.084Z,14.23
2023-01-20T19:57:51.797Z,13.32
2023-01-20T20:01:53.533Z,13.55
2023-01-20T20:05:57.178Z,14.77
2023-01-20T20:09:59.021Z,13.62
2023-01-20T20:14:02.709Z,13.10
2023-01-20T20:18:04.389Z,11.75
2023-01-20T20:22:06.042Z,11.82
2023-01-20T20:26:11.957Z,12.90
2023-01-20T20:30:13.939Z,12.82
2023-01-20T20:34:17.819Z,12.25
2023-01-20T20:38:19.591Z,12.68
2023-01-20T20:42:21.279Z,12.18
2023-01-20T20:46:23.503Z,12.23
2023-01-20T20:50:25.325Z,12.02
2023-01-20T20:54:27.059Z,11.32
2023-01-20T20:58:29.914Z,11.52
2023-01-20T21:02:31.979Z,12.82
2023-01-20T21:06:34.169Z,12.15
2023-01-20T21:10:35.837Z,12.13
2023-01-20T21:14:37.576Z,12.20
2023-01-20T21:18:40.631Z,11.93
2023-01-20T21:22:42.321Z,11.93
2023-01-20T21:26:44.716Z,12.98
2023-01-20T21:30:46.588Z,12.48
2023-01-20T21:34:48.339Z,13.68
2023-01-20T21:38:50.679Z,12.88
2023-01-20T21:42:54.390Z,14.65
2023-01-20T21:46:59.701Z,12.00
2023-01-20T21:51:19.922Z,13.38
2023-01-20T21:55:23.997Z,14.30
2023-01-20T21:59:27.518Z,13.27
2023-01-20T22:03:29.270Z,12.05
2023-01-20T22:07:30.992Z,12.40
2023-01-20T22:11:32.678Z,12.77
2023-01-20T22:15:34.784Z,13.15
2023-01-20T22:19:36.619Z,12.98
2023-01-20T22:23:38.229Z,14.43
2023-01-20T22:27:39.881Z,14.93
2023-01-20T22:31:41.771Z,15.65
2023-01-20T22:35:43.891Z,14.98
2023-01-20T22:39:45.615Z,18.17
2023-01-20T22:43:48.044Z,17.48
2023-01-20T22:47:50.057Z,16.85
2023-01-20T22:51:54.243Z,17.85
2023-01-20T22:56:02.273Z,18.92
2023-01-20T23:00:06.005Z,20.05
2023-01-20T23:04:07.772Z,20.25
2023-01-20T23:08:09.415Z,20.98
2023-01-20T23:12:11.113Z,20.20
2023-01-20T23:16:15.116Z,19.62
2023-01-20T23:20:17.225Z,19.80
2023-01-20T23:24:19.040Z,19.73
2023-01-20T23:28:20.687Z,20.35
2023-01-20T23:32:22.317Z,18.52
2023-01-20T23:36:25.583Z,21.00
2023-01-20T23:40:27.413Z,21.02
2023-01-20T23:44:29.039Z,21.42
2023-01-20T23:48:31.359Z,22.00
2023-01-20T23:52:32.990Z,20.60
2023-01-20T23:56:35.118Z,20.60
